createdAt,value
2023-05-17T00:01:23.941Z,7.64
2023-05-17T00:03:54.169Z,7.61
2023-05-17T00:06:22.646Z,7.59
2023-05-17T00:08:50.967Z,7.59
2023-05-17T00:11:19.341Z,7.61
2023-05-17T00:13:49.058Z,7.66
2023-05-17T00:16:17.627Z,7.56
2023-05-17T00:18:46.276Z,7.50
2023-05-17T00:21:16.539Z,7.48
2023-05-17T00:23:44.953Z,7.38
2023-05-17T00:26:13.824Z,7.37
2023-05-17T00:28:42.148Z,7.24
2023-05-17T00:31:11.886Z,7.32
2023-05-17T00:33:40.363Z,7.34
2023-05-17T00:36:08.774Z,7.32
2023-05-17T00:38:37.175Z,7.33
2023-05-17T00:41:05.477Z,7.41
2023-05-17T00:43:33.883Z,7.35
2023-05-17T00:46:02.317Z,7.31
2023-05-17T00:48:32.191Z,7.26
2023-05-17T00:51:01.096Z,7.26
2023-05-17T00:53:29.608Z,7.18
2023-05-17T00:55:58.236Z,7.19
2023-05-17T00:58:26.662Z,7.20
2023-05-17T01:00:55.123Z,7.19
2023-05-17T01:03:23.672Z,7.18
2023-05-17T01:05:53.306Z,7.17
2023-05-17T01:08:21.688Z,7.17
2023-05-17T01:10:54.131Z,7.18
2023-05-17T01:13:25.470Z,7.12
2023-05-17T01:15:58.350Z,7.05
2023-05-17T01:18:30.789Z,7.05
2023-05-17T01:21:02.543Z,7.01
2023-05-17T01:23:42.995Z,6.98
2023-05-17T01:26:15.097Z,7.00
2023-05-17T01:28:46.011Z,6.90
2023-05-17T01:31:14.893Z,7.01
2023-05-17T01:33:43.494Z,7.00
2023-05-17T01:36:11.970Z,6.99
2023-05-17T01:38:40.216Z,6.98
2023-05-17T01:41:12.145Z,7.04
2023-05-17T01:43:43.423Z,6.94
2023-05-17T01:46:17.254Z,6.94
2023-05-17T01:48:50.528Z,6.89
2023-05-17T01:51:21.191Z,6.78
2023-05-17T01:53:51.886Z,6.82
2023-05-17T01:56:22.047Z,6.70
2023-05-17T01:58:52.460Z,6.78
2023-05-17T02:01:22.510Z,6.67
2023-05-17T02:03:51.171Z,6.62
2023-05-17T02:06:33.821Z,6.60
2023-05-17T02:09:03.079Z,6.73
2023-05-17T02:11:33.435Z,6.69
2023-05-17T02:14:01.678Z,6.71
2023-05-17T02:16:31.496Z,6.67
2023-05-17T02:19:00.091Z,6.53
2023-05-17T02:21:28.540Z,6.53
2023-05-17T02:23:57.712Z,6.76
2023-05-17T02:26:26.225Z,6.67
2023-05-17T02:28:57.271Z,6.58
2023-05-17T02:31:26.879Z,6.55
2023-05-17T02:33:56.784Z,6.57
2023-05-17T02:36:25.438Z,6.52
2023-05-17T02:38:53.840Z,6.51
2023-05-17T02:41:22.619Z,6.58
2023-05-17T02:43:51.152Z,6.50
2023-05-17T02:46:28.436Z,6.52
2023-05-17T02:48:58.187Z,6.59
2023-05-17T02:51:26.513Z,6.81
2023-05-17T02:53:55.000Z,6.92
2023-05-17T02:56:23.306Z,6.90
2023-05-17T02:58:51.655Z,6.85
2023-05-17T03:01:20.037Z,6.86
2023-05-17T03:03:49.008Z,7.01
2023-05-17T03:06:18.921Z,7.03
2023-05-17T03:08:47.248Z,7.07
2023-05-17T03:11:15.567Z,7.16
2023-05-17T03:13:46.364Z,7.29
2023-05-17T03:16:14.809Z,7.35
2023-05-17T03:18:43.285Z,7.42
2023-05-17T03:21:11.834Z,7.48
2023-05-17T03:23:41.479Z,7.56
2023-05-17T03:26:09.753Z,7.71
2023-05-17T03:28:38.084Z,7.84
2023-05-17T03:31:06.573Z,7.96
2023-05-17T03:33:35.013Z,8.09
2023-05-17T03:36:03.417Z,8.13
2023-05-17T03:38:32.068Z,8.16
2023-05-17T03:41:01.801Z,8.11
2023-05-17T03:43:30.151Z,8.09
2023-05-17T03:45:58.452Z,8.13
2023-05-17T03:48:36.149Z,8.09
2023-05-17T03:51:05.034Z,7.99
2023-05-17T03:53:33.663Z,8.01
2023-05-17T03:56:03.371Z,7.99
2023-05-17T03:58:31.668Z,8.00
2023-05-17T04:00:59.930Z,7.96
2023-05-17T04:03:28.397Z,8.00
2023-05-17T04:06:02.140Z,8.06
2023-05-17T04:08:30.557Z,8.06
2023-05-17T04:10:58.870Z,8.00
2023-05-17T04:13:28.628Z,7.93
2023-05-17T04:15:56.861Z,7.90
2023-05-17T04:18:25.231Z,7.93
2023-05-17T04:20:53.782Z,7.95
2023-05-17T04:23:22.108Z,7.99
2023-05-17T04:25:50.908Z,8.14
2023-05-17T04:28:19.724Z,8.28
2023-05-17T04:30:49.438Z,8.41
2023-05-17T04:33:17.971Z,8.57
2023-05-17T04:35:46.957Z,8.61
2023-05-17T04:38:15.282Z,8.62
2023-05-17T04:40:43.555Z,8.60
2023-05-17T04:43:12.188Z,8.41
2023-05-17T04:45:41.049Z,8.27
2023-05-17T04:48:10.884Z,8.18
2023-05-17T04:50:39.242Z,8.11
2023-05-17T04:53:07.595Z,8.06
2023-05-17T04:55:35.972Z,8.08
2023-05-17T04:58:04.358Z,8.06
2023-05-17T05:00:32.702Z,8.04
2023-05-17T05:03:01.044Z,8.05
2023-05-17T05:05:31.343Z,8.11
2023-05-17T05:07:59.717Z,8.22
2023-05-17T05:10:28.765Z,8.27
2023-05-17T05:12:58.066Z,8.28
2023-05-17T05:15:26.486Z,8.32
2023-05-17T05:17:55.025Z,8.50
2023-05-17T05:20:24.650Z,8.52
2023-05-17T05:22:58.396Z,8.67
2023-05-17T05:25:28.435Z,8.62
2023-05-17T05:27:56.961Z,8.71
2023-05-17T05:30:27.303Z,8.79
2023-05-17T05:32:58.624Z,8.83
2023-05-17T05:35:30.373Z,8.90
2023-05-17T05:38:00.510Z,8.98
2023-05-17T05:40:28.973Z,9.07
2023-05-17T05:42:57.433Z,9.19
2023-05-17T05:45:25.850Z,9.27
2023-05-17T05:47:54.341Z,9.29
2023-05-17T05:50:22.840Z,9.41
2023-05-17T05:52:51.385Z,9.53
2023-05-17T05:55:21.132Z,9.66
2023-05-17T05:57:49.479Z,9.76
2023-05-17T06:00:18.659Z,9.83
2023-05-17T06:02:47.111Z,9.91
2023-05-17T06:05:15.500Z,10.03
2023-05-17T06:07:46.584Z,10.14
2023-05-17T06:10:14.962Z,10.24
2023-05-17T06:12:44.763Z,10.18
2023-05-17T06:15:13.310Z,10.23
2023-05-17T06:17:41.789Z,10.29
2023-05-17T06:20:10.771Z,10.33
2023-05-17T06:22:41.807Z,10.43
2023-05-17T06:25:11.325Z,10.62
2023-05-17T06:27:41.204Z,10.63
2023-05-17T06:30:11.741Z,10.78
2023-05-17T06:32:40.193Z,10.96
2023-05-17T06:35:09.153Z,11.19
2023-05-17T06:37:37.721Z,11.31
2023-05-17T06:40:16.469Z,11.57
2023-05-17T06:42:45.700Z,11.61
2023-05-17T06:45:16.300Z,11.65
2023-05-17T06:47:44.760Z,11.79
2023-05-17T06:50:13.263Z,12.08
2023-05-17T06:52:41.594Z,12.33
2023-05-17T06:55:10.523Z,12.63
2023-05-17T06:57:38.976Z,12.70
2023-05-17T07:00:11.001Z,12.90
2023-05-17T07:02:40.985Z,13.08
2023-05-17T07:05:09.679Z,13.38
2023-05-17T07:07:38.201Z,13.59
2023-05-17T07:10:07.401Z,13.67
2023-05-17T07:12:35.901Z,13.76
2023-05-17T07:15:07.376Z,13.67
2023-05-17T07:17:36.159Z,13.51
2023-05-17T07:20:06.680Z,13.56
2023-05-17T07:22:39.099Z,13.55
2023-05-17T07:25:08.323Z,13.67
2023-05-17T07:27:38.322Z,14.09
2023-05-17T07:30:07.584Z,14.58
2023-05-17T07:32:35.942Z,14.63
2023-05-17T07:35:04.511Z,14.61
2023-05-17T07:37:34.276Z,14.43
2023-05-17T07:40:02.641Z,14.45
2023-05-17T07:42:30.934Z,14.42
2023-05-17T07:44:59.300Z,14.31
2023-05-17T07:47:27.823Z,14.27
2023-05-17T07:49:56.221Z,14.01
2023-05-17T07:52:24.641Z,14.13
2023-05-17T07:54:54.442Z,14.16
2023-05-17T07:57:22.912Z,14.19
2023-05-17T07:59:52.693Z,14.07
2023-05-17T08:02:21.158Z,14.21
2023-05-17T08:04:51.997Z,13.93
2023-05-17T08:07:20.519Z,13.66
2023-05-17T08:09:48.848Z,15.29
2023-05-17T08:12:18.958Z,16.01
2023-05-17T08:14:47.286Z,16.41
2023-05-17T08:17:15.741Z,18.17
2023-05-17T08:19:47.106Z,20.08
2023-05-17T08:22:16.319Z,22.40
2023-05-17T08:24:45.865Z,24.01
2023-05-17T08:27:14.115Z,23.23
2023-05-17T08:29:43.804Z,22.33
2023-05-17T08:32:12.110Z,21.38
2023-05-17T08:34:40.492Z,20.33
2023-05-17T08:37:10.068Z,19.41
2023-05-17T08:40:06.363Z,18.38
2023-05-17T08:42:34.771Z,18.51
2023-05-17T08:45:05.873Z,18.03
2023-05-17T08:47:37.704Z,17.18
2023-05-17T08:50:07.684Z,16.62
2023-05-17T08:52:36.993Z,16.58
2023-05-17T08:55:06.185Z,17.98
2023-05-17T08:57:36.238Z,20.28
2023-05-17T09:00:12.431Z,20.51
2023-05-17T09:02:42.326Z,20.02
2023-05-17T09:05:11.255Z,18.69
2023-05-17T09:07:39.760Z,18.02
2023-05-17T09:10:08.780Z,19.30
2023-05-17T09:12:37.156Z,21.32
2023-05-17T09:15:17.970Z,22.34
2023-05-17T09:17:52.098Z,22.28
2023-05-17T09:20:25.229Z,20.82
2023-05-17T09:22:53.659Z,20.82
2023-05-17T09:25:22.325Z,20.16
2023-05-17T09:27:53.133Z,20.25
2023-05-17T09:30:27.740Z,23.01
2023-05-17T09:32:57.800Z,25.37
2023-05-17T09:35:30.167Z,25.46
2023-05-17T09:38:05.209Z,28.32
2023-05-17T09:40:38.958Z,30.06
2023-05-17T09:43:07.427Z,30.84
2023-05-17T09:45:37.176Z,31.30
2023-05-17T09:48:15.610Z,31.74
2023-05-17T09:50:44.790Z,28.76
2023-05-17T09:53:42.754Z,24.77
2023-05-17T09:56:12.044Z,25.32
2023-05-17T09:58:43.831Z,27.04
2023-05-17T10:01:13.635Z,26.56
2023-05-17T10:03:42.188Z,24.85
2023-05-17T10:06:16.589Z,22.97
2023-05-17T10:08:57.572Z,23.60
2023-05-17T10:11:27.984Z,25.78
2023-05-17T10:13:59.463Z,24.61
2023-05-17T10:16:30.494Z,23.80
2023-05-17T10:18:59.540Z,23.94
2023-05-17T10:21:28.737Z,22.49
2023-05-17T10:23:57.722Z,21.58
2023-05-17T10:26:26.652Z,22.27
2023-05-17T10:29:00.626Z,24.71
2023-05-17T10:31:31.465Z,23.01
2023-05-17T10:34:01.623Z,21.97
2023-05-17T10:36:31.127Z,24.66
2023-05-17T10:39:00.577Z,27.22
2023-05-17T10:41:31.717Z,28.27
2023-05-17T10:44:00.845Z,29.55
2023-05-17T10:46:31.665Z,30.39
2023-05-17T10:49:01.990Z,31.52
2023-05-17T10:51:32.317Z,28.86
2023-05-17T10:54:08.710Z,25.45
2023-05-17T10:56:40.292Z,27.20
2023-05-17T10:59:21.704Z,27.47
2023-05-17T11:02:06.512Z,25.73
2023-05-17T11:04:36.353Z,28.83
2023-05-17T11:07:25.401Z,31.44
2023-05-17T11:09:55.746Z,30.90
2023-05-17T11:12:33.627Z,30.47
2023-05-17T11:15:08.311Z,30.90
2023-05-17T11:17:49.874Z,28.92
2023-05-17T11:20:32.277Z,28.14
2023-05-17T11:23:02.290Z,28.28
2023-05-17T11:25:31.842Z,28.80
2023-05-17T11:28:00.652Z,30.11
2023-05-17T11:30:32.085Z,28.01
2023-05-17T11:33:02.905Z,26.65
2023-05-17T11:35:33.763Z,26.70
2023-05-17T11:38:15.463Z,27.24
2023-05-17T11:40:44.197Z,26.78
2023-05-17T11:43:16.533Z,24.36
2023-05-17T11:45:46.567Z,23.58
2023-05-17T11:48:17.101Z,24.65
2023-05-17T11:50:46.606Z,27.47
2023-05-17T11:53:15.251Z,28.73
2023-05-17T11:55:44.450Z,30.04
2023-05-17T11:58:13.999Z,30.59
2023-05-17T12:00:42.955Z,32.11
2023-05-17T12:03:20.476Z,30.17
2023-05-17T12:05:49.753Z,28.15
2023-05-17T12:08:18.982Z,24.68
2023-05-17T12:10:49.316Z,23.30
2023-05-17T12:13:17.748Z,25.03
2023-05-17T12:15:47.057Z,27.27
2023-05-17T12:18:17.030Z,27.34
2023-05-17T12:20:57.154Z,24.96
2023-05-17T12:23:32.785Z,23.17
2023-05-17T12:26:05.030Z,24.75
2023-05-17T12:28:33.961Z,27.48
2023-05-17T12:31:03.897Z,30.35
2023-05-17T12:33:50.405Z,31.59
2023-05-17T12:36:35.143Z,29.43
2023-05-17T12:39:34.591Z,28.19
2023-05-17T12:42:03.275Z,26.66
2023-05-17T12:44:31.673Z,27.95
2023-05-17T12:47:03.099Z,30.51
2023-05-17T12:49:31.808Z,27.88
2023-05-17T12:52:04.246Z,27.58
2023-05-17T12:54:32.716Z,25.41
2023-05-17T12:57:12.495Z,27.30
2023-05-17T12:59:47.740Z,27.03
2023-05-17T13:02:16.775Z,23.47
2023-05-17T13:04:45.191Z,22.15
2023-05-17T13:07:21.772Z,21.89
2023-05-17T13:09:53.303Z,22.83
2023-05-17T13:12:22.544Z,25.17
2023-05-17T13:14:53.112Z,24.85
2023-05-17T13:17:27.505Z,27.54
2023-05-17T13:19:58.002Z,25.10
2023-05-17T13:22:28.073Z,24.67
2023-05-17T13:24:56.640Z,25.46
2023-05-17T13:27:24.965Z,24.41
2023-05-17T13:29:53.296Z,26.31
2023-05-17T13:32:21.835Z,28.35
2023-05-17T13:34:50.318Z,29.50
2023-05-17T13:37:18.636Z,29.99
2023-05-17T13:39:48.319Z,27.79
2023-05-17T13:42:17.565Z,24.91
2023-05-17T13:44:46.159Z,22.86
2023-05-17T13:47:14.670Z,22.42
2023-05-17T13:49:47.616Z,24.54
2023-05-17T13:52:18.480Z,26.71
2023-05-17T13:54:48.246Z,27.99
2023-05-17T13:57:16.849Z,28.84
2023-05-17T13:59:45.942Z,27.86
2023-05-17T14:02:18.168Z,28.78
2023-05-17T14:05:00.882Z,27.89
2023-05-17T14:07:30.141Z,28.21
2023-05-17T14:10:01.003Z,27.17
2023-05-17T14:12:29.566Z,27.97
2023-05-17T14:14:57.950Z,27.44
2023-05-17T14:17:26.319Z,24.96
2023-05-17T14:19:54.754Z,24.51
2023-05-17T14:22:23.106Z,24.29
2023-05-17T14:24:51.646Z,24.74
2023-05-17T14:27:32.217Z,25.14
2023-05-17T14:30:01.534Z,25.73
2023-05-17T14:32:30.289Z,25.30
2023-05-17T14:34:58.761Z,24.45
2023-05-17T14:37:27.564Z,22.99
2023-05-17T14:40:05.945Z,22.37
2023-05-17T14:42:36.689Z,22.35
2023-05-17T14:45:05.311Z,22.60
2023-05-17T14:47:36.425Z,21.72
2023-05-17T14:50:05.956Z,21.24
2023-05-17T14:52:34.749Z,21.15
2023-05-17T14:55:04.091Z,20.92
2023-05-17T14:57:32.647Z,21.04
2023-05-17T15:00:03.038Z,20.54
2023-05-17T15:02:31.686Z,19.81
2023-05-17T15:05:03.478Z,19.72
2023-05-17T15:07:33.256Z,20.02
2023-05-17T15:10:01.800Z,19.93
2023-05-17T15:12:30.319Z,19.97
2023-05-17T15:14:58.621Z,20.15
2023-05-17T15:17:28.660Z,20.07
2023-05-17T15:19:57.592Z,20.16
2023-05-17T15:22:26.330Z,19.78
2023-05-17T15:24:57.920Z,19.72
2023-05-17T15:27:26.550Z,19.50
2023-05-17T15:29:55.270Z,19.64
2023-05-17T15:32:23.802Z,19.60
2023-05-17T15:34:53.597Z,19.67
2023-05-17T15:37:22.038Z,19.80
2023-05-17T15:39:50.535Z,19.25
2023-05-17T15:42:19.353Z,18.55
2023-05-17T15:44:47.757Z,18.39
2023-05-17T15:47:19.241Z,18.80
2023-05-17T15:49:48.055Z,18.87
2023-05-17T15:52:18.017Z,18.88
2023-05-17T15:54:50.132Z,18.86
2023-05-17T15:57:18.911Z,17.74
2023-05-17T15:59:49.197Z,17.02
2023-05-17T16:02:19.992Z,17.14
2023-05-17T16:04:48.572Z,17.33
2023-05-17T16:07:18.377Z,17.33
2023-05-17T16:09:46.728Z,17.47
2023-05-17T16:12:15.009Z,17.57
2023-05-17T16:14:44.900Z,17.42
2023-05-17T16:17:13.313Z,17.41
2023-05-17T16:19:42.586Z,17.30
2023-05-17T16:22:11.112Z,16.97
2023-05-17T16:24:41.958Z,16.80
2023-05-17T16:27:10.376Z,16.83
2023-05-17T16:29:53.523Z,17.11
2023-05-17T16:32:21.942Z,17.35
2023-05-17T16:34:50.254Z,17.48
2023-05-17T16:37:18.634Z,16.80
2023-05-17T16:39:48.329Z,16.64
2023-05-17T16:42:16.718Z,16.73
2023-05-17T16:44:45.336Z,16.47
2023-05-17T16:47:14.113Z,16.38
2023-05-17T16:49:43.131Z,16.64
2023-05-17T16:52:11.484Z,16.57
2023-05-17T16:54:41.326Z,16.61
2023-05-17T16:57:11.448Z,16.83
2023-05-17T16:59:39.821Z,16.68
2023-05-17T17:02:08.255Z,16.75
2023-05-17T17:04:36.703Z,16.77
2023-05-17T17:07:07.961Z,16.72
2023-05-17T17:09:36.354Z,16.63
2023-05-17T17:12:20.205Z,16.25
2023-05-17T17:14:53.408Z,16.15
2023-05-17T17:17:22.097Z,16.05
2023-05-17T17:19:50.616Z,15.87
2023-05-17T17:22:18.873Z,15.88
2023-05-17T17:24:47.152Z,15.78
2023-05-17T17:27:15.636Z,15.51
2023-05-17T17:29:43.982Z,15.28
2023-05-17T17:32:13.718Z,14.97
2023-05-17T17:34:42.079Z,14.66
2023-05-17T17:37:10.431Z,14.57
2023-05-17T17:39:39.269Z,14.45
2023-05-17T17:42:09.987Z,14.40
2023-05-17T17:44:38.424Z,14.19
2023-05-17T17:47:08.755Z,14.17
2023-05-17T17:49:41.852Z,14.27
2023-05-17T17:52:10.348Z,14.19
2023-05-17T17:54:39.930Z,13.88
2023-05-17T17:57:08.649Z,13.92
2023-05-17T17:59:40.800Z,13.81
2023-05-17T18:02:09.583Z,13.53
2023-05-17T18:04:41.852Z,13.42
2023-05-17T18:07:17.367Z,13.29
2023-05-17T18:09:55.081Z,13.30
2023-05-17T18:12:32.623Z,13.15
2023-05-17T18:15:02.023Z,13.08
2023-05-17T18:17:30.462Z,13.04
2023-05-17T18:20:00.271Z,12.89
2023-05-17T18:22:38.222Z,12.94
2023-05-17T18:25:07.243Z,12.92
2023-05-17T18:27:36.740Z,12.90
2023-05-17T18:30:05.545Z,12.79
2023-05-17T18:32:34.186Z,12.73
2023-05-17T18:35:04.311Z,12.81
2023-05-17T18:37:33.032Z,12.71
2023-05-17T18:40:02.296Z,12.65
2023-05-17T18:42:30.875Z,12.66
2023-05-17T18:44:59.856Z,12.54
2023-05-17T18:47:28.728Z,12.50
2023-05-17T18:49:57.482Z,12.31
2023-05-17T18:52:27.335Z,12.31
2023-05-17T18:54:55.699Z,12.12
2023-05-17T18:57:24.207Z,11.94
2023-05-17T18:59:52.707Z,11.84
2023-05-17T19:02:21.237Z,11.81
2023-05-17T19:04:49.704Z,11.67
2023-05-17T19:07:18.267Z,11.47
2023-05-17T19:09:48.076Z,11.38
2023-05-17T19:12:16.464Z,11.24
2023-05-17T19:14:45.009Z,11.18
2023-05-17T19:17:13.446Z,11.12
2023-05-17T19:19:49.813Z,11.07
2023-05-17T19:22:21.644Z,11.09
2023-05-17T19:24:54.235Z,10.91
2023-05-17T19:27:22.680Z,10.85
2023-05-17T19:29:51.770Z,10.73
2023-05-17T19:32:22.694Z,10.56
2023-05-17T19:34:51.532Z,10.45
2023-05-17T19:37:24.652Z,10.39
2023-05-17T19:39:54.604Z,10.48
2023-05-17T19:42:25.699Z,10.33
2023-05-17T19:44:54.312Z,10.28
2023-05-17T19:47:22.773Z,10.24
2023-05-17T19:49:52.137Z,10.18
2023-05-17T19:52:21.385Z,10.08
2023-05-17T19:54:49.992Z,10.25
2023-05-17T19:57:19.847Z,10.32
2023-05-17T20:00:00.516Z,10.18
2023-05-17T20:02:29.779Z,10.13
2023-05-17T20:05:02.055Z,10.13
2023-05-17T20:07:30.784Z,10.15
2023-05-17T20:09:59.216Z,10.10
2023-05-17T20:12:29.493Z,10.08
2023-05-17T20:14:58.166Z,9.90
2023-05-17T20:17:26.466Z,9.82
2023-05-17T20:19:55.146Z,9.70
2023-05-17T20:22:23.607Z,9.54
2023-05-17T20:24:51.927Z,9.50
2023-05-17T20:27:20.521Z,9.48
2023-05-17T20:29:53.325Z,9.36
2023-05-17T20:32:22.046Z,9.44
2023-05-17T20:34:50.660Z,9.38
2023-05-17T20:37:20.487Z,9.30
2023-05-17T20:39:49.192Z,9.28
2023-05-17T20:42:20.631Z,9.32
2023-05-17T20:44:49.519Z,9.19
2023-05-17T20:47:23.046Z,9.14
2023-05-17T20:49:51.611Z,9.16
2023-05-17T20:52:38.068Z,9.02
2023-05-17T20:55:09.417Z,8.99
2023-05-17T20:57:38.141Z,8.92
2023-05-17T21:00:09.085Z,8.91
2023-05-17T21:02:39.764Z,8.91
2023-05-17T21:05:11.037Z,8.79
2023-05-17T21:07:40.598Z,8.80
2023-05-17T21:10:09.809Z,8.74
2023-05-17T21:12:38.430Z,8.78
2023-05-17T21:15:15.814Z,8.74
2023-05-17T21:17:47.158Z,8.64
2023-05-17T21:20:15.455Z,8.57
2023-05-17T21:22:44.320Z,8.58
2023-05-17T21:25:12.883Z,8.59
2023-05-17T21:27:41.150Z,8.48
2023-05-17T21:30:10.024Z,8.47
2023-05-17T21:32:38.375Z,8.54
2023-05-17T21:35:08.702Z,8.55
2023-05-17T21:37:39.856Z,8.51
2023-05-17T21:40:09.181Z,8.41
2023-05-17T21:42:37.628Z,8.36
2023-05-17T21:45:06.518Z,8.30
2023-05-17T21:47:36.014Z,8.27
2023-05-17T21:50:09.372Z,8.19
2023-05-17T21:52:39.774Z,8.09
2023-05-17T21:55:08.996Z,8.06
2023-05-17T21:57:37.459Z,8.11
2023-05-17T22:00:07.719Z,7.98
2023-05-17T22:02:38.951Z,8.01
2023-05-17T22:05:09.540Z,7.91
2023-05-17T22:08:01.624Z,7.90
2023-05-17T22:10:30.479Z,7.94
2023-05-17T22:13:02.053Z,7.96
2023-05-17T22:15:30.882Z,7.91
2023-05-17T22:17:59.415Z,7.85
2023-05-17T22:20:29.845Z,7.84
2023-05-17T22:22:58.552Z,7.88
2023-05-17T22:25:26.997Z,7.68
2023-05-17T22:27:55.457Z,7.71
2023-05-17T22:30:23.788Z,7.71
2023-05-17T22:32:54.768Z,7.60
2023-05-17T22:35:23.803Z,7.60
2023-05-17T22:37:53.730Z,7.51
2023-05-17T22:40:22.210Z,7.59
2023-05-17T22:42:51.808Z,7.51
2023-05-17T22:45:20.233Z,7.50
2023-05-17T22:48:05.669Z,7.48
2023-05-17T22:50:34.632Z,7.43
2023-05-17T22:53:06.896Z,7.43
2023-05-17T22:55:36.176Z,7.31
2023-05-17T22:58:04.772Z,7.18
2023-05-17T23:00:33.722Z,7.24
2023-05-17T23:03:02.360Z,7.30
2023-05-17T23:05:31.041Z,7.18
2023-05-17T23:08:01.137Z,7.19
2023-05-17T23:10:31.340Z,7.05
2023-05-17T23:12:59.905Z,7.02
2023-05-17T23:15:28.892Z,7.13
2023-05-17T23:17:59.560Z,6.82
2023-05-17T23:20:28.347Z,6.80
2023-05-17T23:22:59.461Z,6.75
2023-05-17T23:25:29.006Z,6.64
2023-05-17T23:27:59.318Z,6.70
2023-05-17T23:30:29.663Z,6.76
2023-05-17T23:32:58.060Z,6.78
2023-05-17T23:35:27.764Z,6.76
2023-05-17T23:37:56.853Z,6.66
2023-05-17T23:40:25.260Z,6.55
2023-05-17T23:42:53.785Z,6.68
2023-05-17T23:45:24.536Z,6.58
2023-05-17T23:47:54.945Z,6.43
2023-05-17T23:50:23.330Z,6.56
2023-05-17T23:52:51.658Z,6.53
2023-05-17T23:55:21.411Z,6.40
2023-05-17T23:57:50.844Z,6.30
